createdAt,value
2023-04-11T00:00:11.128Z,17.11
2023-04-11T00:01:11.152Z,17.15
2023-04-11T00:02:11.214Z,17.17
2023-04-11T00:03:11.328Z,17.14
2023-04-11T00:04:11.237Z,17.18
2023-04-11T00:05:11.082Z,17.20
2023-04-11T00:06:11.074Z,17.20
2023-04-11T00:07:11.065Z,17.18
2023-04-11T00:08:11.055Z,17.17
2023-04-11T00:09:11.049Z,17.21
2023-04-11T00:10:11.094Z,17.21
2023-04-11T00:11:11.044Z,17.16
2023-04-11T00:12:11.045Z,17.12
2023-04-11T00:13:11.032Z,17.18
2023-04-11T00:14:11.027Z,17.24
2023-04-11T00:15:11.001Z,17.17
2023-04-11T00:16:11.048Z,17.25
2023-04-11T00:17:11.018Z,17.18
2023-04-11T00:18:10.996Z,17.18
2023-04-11T00:19:10.982Z,17.20
2023-04-11T00:20:11.055Z,17.20
2023-04-11T00:21:10.979Z,17.20
2023-04-11T00:22:10.974Z,17.23
2023-04-11T00:23:10.967Z,17.29
2023-04-11T00:24:10.972Z,17.27
2023-04-11T00:25:10.972Z,17.27
2023-04-11T00:26:10.957Z,17.24
2023-04-11T00:27:10.932Z,17.27
2023-04-11T00:28:10.974Z,17.30
2023-04-11T00:29:10.940Z,17.27
2023-04-11T00:30:10.920Z,17.29
2023-04-11T00:31:10.914Z,17.27
2023-04-11T00:32:10.969Z,17.33
2023-04-11T00:33:10.900Z,17.30
2023-04-11T00:34:10.911Z,17.29
2023-04-11T00:35:10.908Z,17.33
2023-04-11T00:36:10.989Z,17.33
2023-04-11T00:37:10.874Z,17.30
2023-04-11T00:38:10.986Z,17.35
2023-04-11T00:39:10.883Z,17.31
2023-04-11T00:40:10.873Z,17.35
2023-04-11T00:41:10.875Z,17.35
2023-04-11T00:42:10.851Z,17.31
2023-04-11T00:43:10.858Z,17.33
2023-04-11T00:44:10.893Z,17.38
2023-04-11T00:45:10.951Z,17.36
2023-04-11T00:46:11.078Z,17.36
2023-04-11T00:47:11.096Z,17.31
2023-04-11T00:48:11.128Z,17.35
2023-04-11T00:49:11.190Z,17.38
2023-04-11T00:50:11.220Z,17.38
2023-04-11T00:51:11.247Z,17.36
2023-04-11T00:52:11.276Z,17.35
2023-04-11T00:53:11.301Z,17.39
2023-04-11T00:54:11.325Z,17.33
2023-04-11T00:55:11.367Z,17.38
2023-04-11T00:56:11.386Z,17.36
2023-04-11T00:57:11.410Z,17.42
2023-04-11T00:58:11.471Z,17.36
2023-04-11T00:59:11.467Z,17.42
2023-04-11T01:00:11.477Z,17.38
2023-04-11T01:01:11.610Z,17.41
2023-04-11T01:02:11.561Z,17.38
2023-04-11T01:03:11.674Z,17.41
2023-04-11T01:04:11.619Z,17.38
2023-04-11T01:05:11.596Z,17.39
2023-04-11T01:06:11.629Z,17.44
2023-04-11T01:07:11.656Z,17.42
2023-04-11T01:08:11.683Z,17.44
2023-04-11T01:09:11.794Z,17.44
2023-04-11T01:10:11.749Z,17.41
2023-04-11T01:11:11.787Z,17.44
2023-04-11T01:12:11.806Z,17.42
2023-04-11T01:13:11.821Z,17.41
2023-04-11T01:14:11.838Z,17.45
2023-04-11T01:15:11.882Z,17.39
2023-04-11T01:16:11.972Z,17.39
2023-04-11T01:17:12.026Z,17.39
2023-04-11T01:18:12.076Z,17.42
2023-04-11T01:19:12.120Z,17.45
2023-04-11T01:20:12.166Z,17.47
2023-04-11T01:21:12.186Z,17.42
2023-04-11T01:22:12.205Z,17.39
2023-04-11T01:23:12.254Z,17.44
2023-04-11T01:24:12.263Z,17.42
2023-04-11T01:25:12.306Z,17.41
2023-04-11T01:26:12.280Z,17.42
2023-04-11T01:27:12.312Z,17.44
2023-04-11T01:28:12.364Z,17.47
2023-04-11T01:29:12.419Z,17.47
2023-04-11T01:30:12.482Z,17.39
2023-04-11T01:31:12.553Z,17.47
2023-04-11T01:32:12.586Z,17.42
2023-04-11T01:33:12.620Z,17.45
2023-04-11T01:34:12.671Z,17.44
2023-04-11T01:35:12.726Z,17.45
2023-04-11T01:36:12.769Z,17.44
2023-04-11T01:37:12.777Z,17.42
2023-04-11T01:38:12.833Z,17.45
2023-04-11T01:39:12.840Z,17.50
2023-04-11T01:40:12.879Z,17.44
2023-04-11T01:41:12.901Z,17.50
2023-04-11T01:42:12.938Z,17.48
2023-04-11T01:43:12.964Z,17.51
2023-04-11T01:44:12.987Z,17.51
2023-04-11T01:45:13.038Z,17.48
2023-04-11T01:46:13.017Z,17.48
2023-04-11T01:47:13.038Z,17.52
2023-04-11T01:48:13.101Z,17.52
2023-04-11T01:49:13.246Z,17.49
2023-04-11T01:50:13.116Z,17.52
2023-04-11T01:51:13.154Z,17.52
2023-04-11T01:52:13.205Z,17.59
2023-04-11T01:53:13.230Z,17.54
2023-04-11T01:54:13.235Z,17.54
2023-04-11T01:55:13.264Z,17.52
2023-04-11T01:56:13.263Z,17.57
2023-04-11T01:57:13.290Z,17.54
2023-04-11T01:58:13.324Z,17.56
2023-04-11T01:59:13.338Z,17.60
2023-04-11T02:00:13.383Z,17.58
2023-04-11T02:01:13.466Z,17.57
2023-04-11T02:02:13.582Z,17.58
2023-04-11T02:03:13.629Z,17.62
2023-04-11T02:04:13.526Z,17.60
2023-04-11T02:05:13.484Z,17.57
2023-04-11T02:06:13.489Z,17.60
2023-04-11T02:07:13.565Z,17.62
2023-04-11T02:08:13.574Z,17.65
2023-04-11T02:09:13.594Z,17.66
2023-04-11T02:10:13.650Z,17.63
2023-04-11T02:11:13.738Z,17.65
2023-04-11T02:12:13.749Z,17.65
2023-04-11T02:13:13.817Z,17.66
2023-04-11T02:14:13.843Z,17.71
2023-04-11T02:15:13.927Z,17.66
2023-04-11T02:16:14.004Z,17.69
2023-04-11T02:17:13.998Z,17.74
2023-04-11T02:18:14.000Z,17.75
2023-04-11T02:19:14.031Z,17.75
2023-04-11T02:20:14.083Z,17.72
2023-04-11T02:21:14.101Z,17.72
2023-04-11T02:22:14.124Z,17.69
2023-04-11T02:23:14.152Z,17.75
2023-04-11T02:24:14.158Z,17.75
2023-04-11T02:25:14.184Z,17.77
2023-04-11T02:26:14.229Z,17.78
2023-04-11T02:27:14.292Z,17.74
2023-04-11T02:28:14.358Z,17.75
2023-04-11T02:29:14.410Z,17.83
2023-04-11T02:30:14.454Z,17.80
2023-04-11T02:31:14.602Z,17.80
2023-04-11T02:32:14.670Z,17.83
2023-04-11T02:33:14.628Z,17.77
2023-04-11T02:34:14.673Z,17.77
2023-04-11T02:35:14.743Z,17.78
2023-04-11T02:36:14.804Z,17.80
2023-04-11T02:37:14.809Z,17.87
2023-04-11T02:38:14.814Z,17.79
2023-04-11T02:39:14.835Z,17.81
2023-04-11T02:40:14.880Z,17.83
2023-04-11T02:41:14.912Z,17.81
2023-04-11T02:42:14.936Z,17.81
2023-04-11T02:43:14.963Z,17.83
2023-04-11T02:44:14.985Z,17.86
2023-04-11T02:45:15.012Z,17.86
2023-04-11T02:46:15.163Z,17.84
2023-04-11T02:47:15.088Z,17.85
2023-04-11T02:48:15.099Z,17.86
2023-04-11T02:49:15.157Z,17.89
2023-04-11T02:50:15.178Z,17.90
2023-04-11T02:51:15.192Z,17.84
2023-04-11T02:52:15.220Z,17.85
2023-04-11T02:53:15.269Z,17.87
2023-04-11T02:54:15.275Z,17.87
2023-04-11T02:55:15.303Z,17.86
2023-04-11T02:56:15.329Z,17.87
2023-04-11T02:57:15.341Z,17.84
2023-04-11T02:58:15.390Z,17.93
2023-04-11T02:59:15.412Z,17.81
2023-04-11T03:00:15.447Z,17.84
2023-04-11T03:01:15.514Z,17.87
2023-04-11T03:02:15.573Z,17.87
2023-04-11T03:03:15.723Z,17.86
2023-04-11T03:04:15.630Z,17.87
2023-04-11T03:05:15.601Z,17.86
2023-04-11T03:06:15.635Z,17.84
2023-04-11T03:07:15.666Z,17.90
2023-04-11T03:08:15.724Z,17.87
2023-04-11T03:09:15.747Z,17.89
2023-04-11T03:10:15.770Z,17.89
2023-04-11T03:11:15.793Z,17.92
2023-04-11T03:12:15.814Z,17.89
2023-04-11T03:13:15.856Z,17.87
2023-04-11T03:14:15.900Z,17.89
2023-04-11T03:15:15.917Z,17.89
2023-04-11T03:16:16.028Z,17.95
2023-04-11T03:17:15.993Z,17.89
2023-04-11T03:18:16.020Z,17.89
2023-04-11T03:19:16.074Z,17.87
2023-04-11T03:20:16.134Z,17.92
2023-04-11T03:21:16.177Z,17.87
2023-04-11T03:22:16.250Z,17.95
2023-04-11T03:23:16.306Z,17.86
2023-04-11T03:24:16.398Z,17.95
2023-04-11T03:25:16.444Z,17.93
2023-04-11T03:26:16.483Z,17.90
2023-04-11T03:27:16.506Z,17.93
2023-04-11T03:28:16.564Z,17.92
2023-04-11T03:29:16.637Z,17.99
2023-04-11T03:30:16.677Z,17.92
2023-04-11T03:31:16.750Z,17.99
2023-04-11T03:32:16.789Z,17.95
2023-04-11T03:33:16.823Z,17.99
2023-04-11T03:34:16.881Z,18.04
2023-04-11T03:35:16.936Z,17.98
2023-04-11T03:36:17.012Z,18.01
2023-04-11T03:37:17.042Z,18.02
2023-04-11T03:38:17.111Z,17.98
2023-04-11T03:39:17.165Z,17.99
2023-04-11T03:40:17.212Z,18.04
2023-04-11T03:41:17.254Z,18.01
2023-04-11T03:42:17.250Z,18.02
2023-04-11T03:43:17.286Z,18.05
2023-04-11T03:44:17.326Z,18.04
2023-04-11T03:45:17.353Z,18.05
2023-04-11T03:46:17.395Z,18.05
2023-04-11T03:47:17.397Z,18.07
2023-04-11T03:48:19.558Z,17.99
2023-04-11T03:49:17.424Z,18.07
2023-04-11T03:50:17.455Z,18.04
2023-04-11T03:51:17.419Z,18.07
2023-04-11T03:52:17.412Z,18.08
2023-04-11T03:53:17.416Z,18.05
2023-04-11T03:54:17.416Z,18.10
2023-04-11T03:55:17.394Z,18.09
2023-04-11T03:56:17.387Z,18.08
2023-04-11T03:57:17.382Z,18.11
2023-04-11T03:58:17.394Z,18.13
2023-04-11T03:59:17.345Z,18.08
2023-04-11T04:00:17.355Z,18.15
2023-04-11T04:01:17.345Z,18.10
2023-04-11T04:02:17.389Z,18.11
2023-04-11T04:03:17.528Z,18.11
2023-04-11T04:04:17.379Z,18.10
2023-04-11T04:05:17.323Z,18.08
2023-04-11T04:06:17.303Z,18.13
2023-04-11T04:07:17.304Z,18.10
2023-04-11T04:08:17.300Z,18.14
2023-04-11T04:09:17.311Z,18.13
2023-04-11T04:10:17.287Z,18.17
2023-04-11T04:11:17.278Z,18.11
2023-04-11T04:12:17.276Z,18.13
2023-04-11T04:13:17.293Z,18.13
2023-04-11T04:14:17.283Z,18.14
2023-04-11T04:15:17.271Z,18.14
2023-04-11T04:16:17.280Z,18.13
2023-04-11T04:17:17.231Z,18.19
2023-04-11T04:18:17.260Z,18.16
2023-04-11T04:19:17.220Z,18.14
2023-04-11T04:20:17.239Z,18.14
2023-04-11T04:21:17.225Z,18.15
2023-04-11T04:22:17.216Z,18.19
2023-04-11T04:23:17.229Z,18.21
2023-04-11T04:24:17.207Z,18.14
2023-04-11T04:25:17.175Z,18.19
2023-04-11T04:26:17.201Z,18.17
2023-04-11T04:27:17.185Z,18.19
2023-04-11T04:28:17.193Z,18.13
2023-04-11T04:29:17.166Z,18.14
2023-04-11T04:30:17.145Z,18.16
2023-04-11T04:31:17.176Z,18.17
2023-04-11T04:32:17.152Z,18.16
2023-04-11T04:33:17.128Z,18.14
2023-04-11T04:34:17.131Z,18.23
2023-04-11T04:35:17.132Z,18.16
2023-04-11T04:36:17.142Z,18.14
2023-04-11T04:37:17.173Z,18.22
2023-04-11T04:38:17.203Z,18.13
2023-04-11T04:39:17.265Z,18.21
2023-04-11T04:40:17.275Z,18.13
2023-04-11T04:41:17.307Z,18.19
2023-04-11T04:42:17.342Z,18.17
2023-04-11T04:43:17.382Z,18.16
2023-04-11T04:44:17.483Z,18.14
2023-04-11T04:45:17.491Z,18.16
2023-04-11T04:46:17.526Z,18.16
2023-04-11T04:47:17.551Z,18.19
2023-04-11T04:48:17.607Z,18.19
2023-04-11T04:49:17.654Z,18.20
2023-04-11T04:50:17.729Z,18.17
2023-04-11T04:51:17.768Z,18.17
2023-04-11T04:52:17.855Z,18.22
2023-04-11T04:53:17.920Z,18.26
2023-04-11T04:54:17.965Z,18.23
2023-04-11T04:55:18.012Z,18.22
2023-04-11T04:56:18.069Z,18.25
2023-04-11T04:57:18.127Z,18.25
2023-04-11T04:58:18.195Z,18.23
2023-04-11T04:59:18.243Z,18.31
2023-04-11T05:00:18.308Z,18.25
2023-04-11T05:01:18.370Z,18.26
2023-04-11T05:02:18.439Z,18.25
2023-04-11T05:03:18.589Z,18.29
2023-04-11T05:04:18.573Z,18.31
2023-04-11T05:05:18.594Z,18.29
2023-04-11T05:06:19.745Z,18.29
2023-04-11T05:07:18.707Z,18.29
2023-04-11T05:08:18.760Z,18.34
2023-04-11T05:09:18.817Z,18.28
2023-04-11T05:10:18.848Z,18.26
2023-04-11T05:11:18.913Z,18.29
2023-04-11T05:12:18.961Z,18.29
2023-04-11T05:13:19.044Z,18.33
2023-04-11T05:14:19.081Z,18.33
2023-04-11T05:15:19.136Z,18.33
2023-04-11T05:16:19.215Z,18.26
2023-04-11T05:17:19.240Z,18.34
2023-04-11T05:18:19.271Z,18.33
2023-04-11T05:19:19.290Z,18.29
2023-04-11T05:20:19.308Z,18.33
2023-04-11T05:21:19.351Z,18.31
2023-04-11T05:22:19.393Z,18.31
2023-04-11T05:23:19.441Z,18.34
2023-04-11T05:24:19.442Z,18.34
2023-04-11T05:25:19.501Z,18.28
2023-04-11T05:26:19.484Z,18.33
2023-04-11T05:27:19.535Z,18.63
2023-04-11T05:28:19.578Z,18.51
2023-04-11T05:29:19.584Z,18.78
2023-04-11T05:30:19.633Z,19.79
2023-04-11T05:31:19.747Z,19.84
2023-04-11T05:32:19.725Z,19.67
2023-04-11T05:33:19.794Z,19.82
2023-04-11T05:34:19.858Z,19.76
2023-04-11T05:35:19.923Z,19.90
2023-04-11T05:36:19.990Z,20.04
2023-04-11T05:37:20.054Z,20.16
2023-04-11T05:38:20.126Z,20.84
2023-04-11T05:39:20.191Z,22.03
2023-04-11T05:40:20.185Z,21.45
2023-04-11T05:41:20.210Z,22.07
2023-04-11T05:42:20.263Z,21.81
2023-04-11T05:43:20.314Z,22.04
2023-04-11T05:44:20.329Z,22.47
2023-04-11T05:45:20.363Z,22.13
2023-04-11T05:46:20.375Z,22.27
2023-04-11T05:47:20.350Z,22.07
2023-04-11T05:48:20.373Z,22.67
2023-04-11T05:49:20.418Z,22.81
2023-04-11T05:50:20.427Z,22.75
2023-04-11T05:51:20.482Z,22.62
2023-04-11T05:52:20.485Z,22.59
2023-04-11T05:53:20.483Z,22.69
2023-04-11T05:54:20.493Z,22.72
2023-04-11T05:55:20.554Z,22.83
2023-04-11T05:56:20.621Z,23.08
2023-04-11T05:57:20.660Z,23.12
2023-04-11T05:58:20.675Z,23.24
2023-04-11T05:59:25.752Z,23.32
2023-04-11T06:00:21.688Z,23.17
2023-04-11T06:01:20.685Z,23.25
2023-04-11T06:02:20.770Z,23.53
2023-04-11T06:03:20.801Z,23.51
2023-04-11T06:04:20.925Z,23.36
2023-04-11T06:05:20.740Z,23.62
2023-04-11T06:06:20.674Z,23.63
2023-04-11T06:07:20.646Z,23.70
2023-04-11T06:08:20.634Z,23.65
2023-04-11T06:09:20.646Z,23.67
2023-04-11T06:10:20.621Z,23.65
2023-04-11T06:11:20.696Z,23.85
2023-04-11T06:12:20.679Z,24.01
2023-04-11T06:13:20.724Z,23.67
2023-04-11T06:14:20.717Z,23.63
2023-04-11T06:15:20.738Z,23.49
2023-04-11T06:16:20.797Z,23.60
2023-04-11T06:17:20.806Z,23.53
2023-04-11T06:18:20.819Z,23.62
2023-04-11T06:19:20.855Z,23.70
2023-04-11T06:20:20.868Z,23.52
2023-04-11T06:21:20.848Z,23.51
2023-04-11T06:22:20.895Z,23.63
2023-04-11T06:23:20.909Z,23.92
2023-04-11T06:24:20.928Z,24.02
2023-04-11T06:25:20.963Z,23.90
2023-04-11T06:26:20.971Z,23.84
2023-04-11T06:27:20.955Z,23.84
2023-04-11T06:28:20.977Z,23.79
2023-04-11T06:29:21.001Z,23.85
2023-04-11T06:30:20.994Z,24.17
2023-04-11T06:31:21.087Z,24.03
2023-04-11T06:32:21.137Z,23.94
2023-04-11T06:33:21.188Z,23.72
2023-04-11T06:34:21.194Z,23.35
2023-04-11T06:35:21.243Z,23.22
2023-04-11T06:36:21.319Z,24.08
2023-04-11T06:37:21.293Z,23.42
2023-04-11T06:38:21.345Z,23.97
2023-04-11T06:39:21.379Z,23.75
2023-04-11T06:40:21.398Z,23.71
2023-04-11T06:41:21.414Z,23.65
2023-04-11T06:42:21.406Z,23.91
2023-04-11T06:43:21.429Z,23.91
2023-04-11T06:44:21.493Z,23.68
2023-04-11T06:45:21.491Z,23.69
2023-04-11T06:46:21.576Z,24.16
2023-04-11T06:47:21.688Z,23.86
2023-04-11T06:48:21.698Z,24.30
2023-04-11T06:49:21.774Z,24.00
2023-04-11T06:50:21.791Z,23.91
2023-04-11T06:51:21.832Z,23.75
2023-04-11T06:52:21.893Z,23.71
2023-04-11T06:53:21.954Z,23.79
2023-04-11T06:54:21.968Z,23.71
2023-04-11T06:55:21.991Z,23.65
2023-04-11T06:56:22.020Z,23.61
2023-04-11T06:57:22.074Z,23.70
2023-04-11T06:58:22.150Z,23.72
2023-04-11T06:59:22.336Z,23.58
2023-04-11T07:00:22.130Z,23.54
2023-04-11T07:01:22.216Z,23.46
2023-04-11T07:02:22.352Z,23.49
2023-04-11T07:03:22.448Z,23.66
2023-04-11T07:04:22.383Z,23.74
2023-04-11T07:05:22.327Z,23.61
2023-04-11T07:06:22.348Z,23.54
2023-04-11T07:07:22.407Z,23.50
2023-04-11T07:08:22.687Z,23.47
2023-04-11T07:09:22.453Z,23.37
2023-04-11T07:10:22.515Z,23.21
2023-04-11T07:11:22.546Z,23.24
2023-04-11T07:12:22.617Z,23.13
2023-04-11T07:13:22.668Z,23.09
2023-04-11T07:14:22.697Z,23.16
2023-04-11T07:15:22.717Z,23.10
2023-04-11T07:16:22.738Z,23.06
2023-04-11T07:17:22.762Z,23.21
2023-04-11T07:18:22.800Z,23.12
2023-04-11T07:19:22.821Z,22.98
2023-04-11T07:20:23.172Z,23.16
2023-04-11T07:21:22.863Z,23.20
2023-04-11T07:22:22.866Z,23.19
2023-04-11T07:23:23.817Z,23.09
2023-04-11T07:24:22.927Z,23.10
2023-04-11T07:25:22.966Z,23.15
2023-04-11T07:26:23.001Z,22.66
2023-04-11T07:27:23.016Z,22.80
2023-04-11T07:28:23.188Z,22.57
2023-04-11T07:29:23.106Z,22.48
2023-04-11T07:30:23.155Z,22.38
2023-04-11T07:31:23.180Z,22.01
2023-04-11T07:32:23.217Z,21.80
2023-04-11T07:33:23.183Z,21.49
2023-04-11T07:34:23.658Z,21.20
2023-04-11T07:35:23.243Z,21.22
2023-04-11T07:36:23.284Z,21.07
2023-04-11T07:37:23.350Z,21.08
2023-04-11T07:38:23.412Z,21.07
2023-04-11T07:39:23.439Z,21.15
2023-04-11T07:40:23.519Z,21.08
2023-04-11T07:41:23.549Z,21.15
2023-04-11T07:42:23.577Z,21.15
2023-04-11T07:43:23.532Z,21.28
2023-04-11T07:44:24.154Z,21.21
2023-04-11T07:45:24.169Z,21.13
2023-04-11T07:46:23.726Z,21.17
2023-04-11T07:47:23.774Z,21.15
2023-04-11T07:48:23.831Z,21.23
2023-04-11T07:49:23.885Z,21.19
2023-04-11T07:50:23.916Z,21.22
2023-04-11T07:51:23.978Z,21.25
2023-04-11T07:52:24.005Z,21.26
2023-04-11T07:53:24.042Z,21.26
2023-04-11T07:54:24.118Z,21.30
2023-04-11T07:55:24.181Z,21.31
2023-04-11T07:56:24.226Z,21.32
2023-04-11T07:57:24.313Z,21.26
2023-04-11T07:58:24.318Z,21.23
2023-04-11T07:59:24.354Z,21.16
2023-04-11T08:00:24.426Z,21.09
2023-04-11T08:01:24.456Z,21.10
2023-04-11T08:02:24.646Z,21.02
2023-04-11T08:03:24.895Z,21.08
2023-04-11T08:04:24.708Z,21.09
2023-04-11T08:05:24.750Z,21.02
2023-04-11T08:06:25.030Z,21.03
2023-04-11T08:07:24.719Z,21.03
2023-04-11T08:08:24.815Z,20.97
2023-04-11T08:09:24.837Z,20.94
2023-04-11T08:10:24.951Z,20.97
2023-04-11T08:11:24.983Z,20.97
2023-04-11T08:12:25.030Z,21.01
2023-04-11T08:13:25.107Z,21.07
2023-04-11T08:14:25.139Z,21.07
2023-04-11T08:15:25.156Z,21.08
2023-04-11T08:16:25.249Z,21.05
2023-04-11T08:17:28.585Z,21.13
2023-04-11T08:18:25.218Z,21.08
2023-04-11T08:19:25.209Z,21.55
2023-04-11T08:20:25.257Z,21.54
2023-04-11T08:21:25.232Z,21.41
2023-04-11T08:22:25.173Z,22.13
2023-04-11T08:23:25.148Z,22.74
2023-04-11T08:24:25.148Z,23.16
2023-04-11T08:25:25.212Z,23.08
2023-04-11T08:26:25.149Z,22.86
2023-04-11T08:27:25.127Z,23.34
2023-04-11T08:28:25.127Z,23.75
2023-04-11T08:29:25.140Z,24.07
2023-04-11T08:30:25.139Z,24.12
2023-04-11T08:31:25.217Z,24.04
2023-04-11T08:32:25.136Z,24.62
2023-04-11T08:33:25.104Z,24.62
2023-04-11T08:34:25.243Z,24.97
2023-04-11T08:35:25.073Z,24.77
2023-04-11T08:36:25.083Z,25.12
2023-04-11T08:37:25.088Z,25.47
2023-04-11T08:38:25.061Z,25.45
2023-04-11T08:39:25.049Z,25.08
2023-04-11T08:40:26.893Z,25.12
2023-04-11T08:41:25.229Z,25.01
2023-04-11T08:42:25.053Z,24.82
2023-04-11T08:43:25.064Z,24.46
2023-04-11T08:44:25.027Z,24.26
2023-04-11T08:45:25.033Z,24.59
2023-04-11T08:46:25.076Z,24.76
2023-04-11T08:47:25.013Z,24.96
2023-04-11T08:48:24.989Z,25.19
2023-04-11T08:49:25.006Z,25.25
2023-04-11T08:50:24.990Z,25.29
2023-04-11T08:51:25.011Z,25.41
2023-04-11T08:52:25.032Z,25.35
2023-04-11T08:53:25.037Z,25.31
2023-04-11T08:54:25.085Z,25.00
2023-04-11T08:55:25.090Z,25.38
2023-04-11T08:56:25.089Z,25.24
2023-04-11T08:57:25.088Z,25.37
2023-04-11T08:58:25.133Z,25.38
2023-04-11T08:59:25.131Z,25.28
2023-04-11T09:00:25.121Z,24.79
2023-04-11T09:01:25.178Z,25.23
2023-04-11T09:02:25.241Z,25.20
2023-04-11T09:03:25.163Z,25.11
2023-04-11T09:04:25.124Z,24.96
2023-04-11T09:05:25.126Z,24.89
2023-04-11T09:06:25.137Z,24.87
2023-04-11T09:07:25.133Z,24.94
2023-04-11T09:08:25.127Z,24.71
2023-04-11T09:09:25.107Z,24.72
2023-04-11T09:10:25.121Z,24.34
2023-04-11T09:11:25.141Z,24.67
2023-04-11T09:12:25.166Z,24.58
2023-04-11T09:13:25.237Z,24.06
2023-04-11T09:14:25.321Z,24.43
2023-04-11T09:15:25.320Z,24.22
2023-04-11T09:16:25.490Z,24.21
2023-04-11T09:17:25.433Z,24.54
2023-04-11T09:18:25.448Z,24.49
2023-04-11T09:19:25.464Z,24.46
2023-04-11T09:20:25.483Z,24.69
2023-04-11T09:21:25.502Z,24.75
2023-04-11T09:22:25.546Z,24.39
2023-04-11T09:23:27.252Z,25.03
2023-04-11T09:24:25.635Z,24.71
2023-04-11T09:25:25.685Z,24.56
2023-04-11T09:26:25.716Z,24.78
2023-04-11T09:27:25.733Z,24.83
2023-04-11T09:28:25.781Z,25.14
2023-04-11T09:29:25.761Z,25.51
2023-04-11T09:30:25.796Z,25.40
2023-04-11T09:31:26.243Z,25.46
2023-04-11T09:32:25.948Z,25.38
2023-04-11T09:33:26.006Z,25.13
2023-04-11T09:34:26.063Z,24.79
2023-04-11T09:35:26.107Z,24.59
2023-04-11T09:36:26.151Z,24.46
2023-04-11T09:37:26.196Z,24.47
2023-04-11T09:38:26.211Z,24.48
2023-04-11T09:39:26.198Z,24.52
2023-04-11T09:40:26.202Z,24.58
2023-04-11T09:41:26.237Z,24.66
2023-04-11T09:42:26.267Z,24.72
2023-04-11T09:43:26.337Z,24.83
2023-04-11T09:44:26.330Z,24.99
2023-04-11T09:45:26.343Z,24.99
2023-04-11T09:46:26.466Z,24.90
2023-04-11T09:47:26.481Z,24.92
2023-04-11T09:48:39.454Z,24.91
2023-04-11T09:49:27.466Z,24.90
2023-04-11T09:50:26.463Z,24.95
2023-04-11T09:52:26.429Z,24.98
2023-04-11T09:53:26.437Z,24.93
2023-04-11T09:54:26.420Z,24.98
2023-04-11T09:55:26.448Z,25.06
2023-04-11T09:56:26.436Z,25.11
2023-04-11T09:57:26.418Z,25.13
2023-04-11T09:58:26.390Z,25.21
2023-04-11T09:59:26.387Z,25.24
2023-04-11T10:00:26.387Z,25.27
2023-04-11T10:01:26.391Z,25.42
2023-04-11T10:02:26.484Z,25.39
2023-04-11T10:03:26.446Z,25.38
2023-04-11T10:04:26.446Z,25.52
2023-04-11T10:05:26.359Z,25.65
2023-04-11T10:06:26.350Z,25.72
2023-04-11T10:07:26.325Z,25.82
2023-04-11T10:08:26.346Z,25.99
2023-04-11T10:09:26.336Z,26.00
2023-04-11T10:10:26.330Z,26.12
2023-04-11T10:11:26.311Z,26.15
2023-04-11T10:12:26.310Z,26.26
2023-04-11T10:13:26.309Z,26.45
2023-04-11T10:14:26.284Z,26.44
2023-04-11T10:15:26.294Z,26.50
2023-04-11T10:16:26.287Z,26.56
2023-04-11T10:17:26.311Z,26.57
2023-04-11T10:18:26.264Z,26.66
2023-04-11T10:19:26.724Z,26.73
2023-04-11T10:20:26.287Z,26.72
2023-04-11T10:21:26.240Z,26.65
2023-04-11T10:22:26.774Z,26.85
2023-04-11T10:23:26.231Z,27.30
2023-04-11T10:24:26.797Z,27.43
2023-04-11T10:25:26.214Z,27.60
2023-04-11T10:26:26.202Z,27.31
2023-04-11T10:27:26.208Z,27.21
2023-04-11T10:28:26.219Z,26.93
2023-04-11T10:29:26.212Z,26.90
2023-04-11T10:30:26.168Z,26.80
2023-04-11T10:31:26.250Z,26.72
2023-04-11T10:32:26.213Z,26.52
2023-04-11T10:33:26.161Z,26.46
2023-04-11T10:34:26.225Z,26.95
2023-04-11T10:35:26.158Z,27.02
2023-04-11T10:36:26.123Z,26.93
2023-04-11T10:37:26.127Z,27.17
2023-04-11T10:38:26.134Z,26.77
2023-04-11T10:39:26.114Z,26.71
2023-04-11T10:40:26.113Z,26.67
2023-04-11T10:41:26.120Z,26.83
2023-04-11T10:42:26.086Z,27.09
2023-04-11T10:43:26.104Z,27.65
2023-04-11T10:44:26.090Z,27.45
2023-04-11T10:45:26.086Z,27.75
2023-04-11T10:46:26.132Z,27.60
2023-04-11T10:47:26.096Z,27.62
2023-04-11T10:48:26.058Z,27.75
2023-04-11T10:49:26.069Z,27.77
2023-04-11T10:50:26.128Z,27.74
2023-04-11T10:51:26.131Z,27.70
2023-04-11T10:52:26.196Z,27.62
2023-04-11T10:53:26.234Z,27.72
2023-04-11T10:54:26.308Z,27.76
2023-04-11T10:55:26.302Z,28.03
2023-04-11T10:56:26.343Z,28.11
2023-04-11T10:57:26.344Z,27.90
2023-04-11T10:58:26.350Z,28.01
2023-04-11T10:59:26.364Z,27.78
2023-04-11T11:00:26.377Z,28.04
2023-04-11T11:01:32.347Z,28.18
2023-04-11T11:02:27.522Z,28.31
2023-04-11T11:03:26.578Z,28.21
2023-04-11T11:04:26.490Z,28.31
2023-04-11T11:05:26.396Z,28.61
2023-04-11T11:06:26.354Z,28.78
2023-04-11T11:07:26.726Z,28.95
2023-04-11T11:08:26.355Z,29.11
2023-04-11T11:09:26.347Z,28.92
2023-04-11T11:10:26.333Z,29.08
2023-04-11T11:11:26.315Z,29.02
2023-04-11T11:12:26.339Z,29.23
2023-04-11T11:13:26.356Z,29.05
2023-04-11T11:14:26.449Z,29.11
2023-04-11T11:15:26.461Z,29.01
2023-04-11T11:16:26.583Z,28.65
2023-04-11T11:17:26.783Z,28.67
2023-04-11T11:18:26.603Z,28.61
2023-04-11T11:19:26.655Z,28.84
2023-04-11T11:20:26.743Z,28.50
2023-04-11T11:21:28.119Z,28.44
2023-04-11T11:22:26.829Z,28.42
2023-04-11T11:23:26.858Z,28.38
2023-04-11T11:24:26.880Z,28.35
2023-04-11T11:25:26.927Z,28.28
2023-04-11T11:26:26.916Z,28.07
2023-04-11T11:27:26.920Z,28.09
2023-04-11T11:28:29.790Z,27.88
2023-04-11T11:29:26.981Z,27.74
2023-04-11T11:30:26.932Z,27.72
2023-04-11T11:31:26.963Z,27.69
2023-04-11T11:32:27.007Z,27.76
2023-04-11T11:33:26.913Z,27.86
2023-04-11T11:34:26.906Z,27.83
2023-04-11T11:35:26.899Z,27.87
2023-04-11T11:36:26.929Z,27.80
2023-04-11T11:37:26.901Z,27.76
2023-04-11T11:38:26.890Z,27.83
2023-04-11T11:39:26.870Z,27.74
2023-04-11T11:40:26.872Z,27.68
2023-04-11T11:41:26.898Z,27.66
2023-04-11T11:42:26.859Z,27.65
2023-04-11T11:43:26.843Z,27.52
2023-04-11T11:44:26.855Z,27.41
2023-04-11T11:45:26.956Z,27.41
2023-04-11T11:46:26.889Z,27.35
2023-04-11T11:47:26.857Z,27.31
2023-04-11T11:48:26.808Z,27.22
2023-04-11T11:49:26.814Z,27.22
2023-04-11T11:50:26.830Z,27.18
2023-04-11T11:51:26.793Z,27.20
2023-04-11T11:52:26.790Z,27.08
2023-04-11T11:53:26.808Z,27.07
2023-04-11T11:54:26.806Z,26.98
2023-04-11T11:55:26.796Z,26.98
2023-04-11T11:56:26.760Z,27.00
2023-04-11T11:57:26.753Z,26.89
2023-04-11T11:58:26.759Z,26.84
2023-04-11T11:59:26.768Z,26.80
2023-04-11T12:00:26.739Z,26.81
2023-04-11T12:01:26.738Z,26.76
2023-04-11T12:02:26.961Z,26.62
2023-04-11T12:03:26.911Z,26.59
2023-04-11T12:04:26.862Z,26.56
2023-04-11T12:05:26.778Z,26.52
2023-04-11T12:06:26.699Z,26.28
2023-04-11T12:07:26.701Z,26.26
2023-04-11T12:08:26.694Z,26.47
2023-04-11T12:09:26.721Z,26.36
2023-04-11T12:10:26.688Z,26.38
2023-04-11T12:11:26.683Z,26.46
2023-04-11T12:12:26.673Z,26.55
2023-04-11T12:13:26.678Z,26.66
2023-04-11T12:14:26.692Z,26.64
2023-04-11T12:15:26.651Z,26.76
2023-04-11T12:16:26.740Z,26.72
2023-04-11T12:17:26.756Z,26.78
2023-04-11T12:18:26.734Z,26.79
2023-04-11T12:19:26.662Z,26.74
2023-04-11T12:20:26.745Z,26.75
2023-04-11T12:21:26.593Z,26.74
2023-04-11T12:22:26.599Z,26.82
2023-04-11T12:23:26.602Z,26.93
2023-04-11T12:24:26.605Z,27.04
2023-04-11T12:25:26.569Z,27.03
2023-04-11T12:26:26.569Z,27.02
2023-04-11T12:27:26.586Z,27.05
2023-04-11T12:28:26.584Z,27.02
2023-04-11T12:29:26.555Z,27.08
2023-04-11T12:30:28.178Z,27.12
2023-04-11T12:31:26.605Z,27.14
2023-04-11T12:32:26.557Z,27.15
2023-04-11T12:33:26.513Z,27.21
2023-04-11T12:34:26.514Z,27.21
2023-04-11T12:35:26.502Z,27.14
2023-04-11T12:36:26.538Z,27.19
2023-04-11T12:37:26.501Z,27.10
2023-04-11T12:38:26.495Z,26.73
2023-04-11T12:39:26.478Z,26.90
2023-04-11T12:40:26.472Z,26.83
2023-04-11T12:42:27.411Z,26.79
2023-04-11T12:43:26.455Z,26.62
2023-04-11T12:44:26.444Z,26.61
2023-04-11T12:45:26.533Z,26.53
2023-04-11T12:46:26.463Z,26.49
2023-04-11T12:47:26.454Z,26.52
2023-04-11T12:48:26.412Z,26.45
2023-04-11T12:49:26.425Z,26.43
2023-04-11T12:50:26.411Z,26.35
2023-04-11T12:51:26.401Z,26.29
2023-04-11T12:52:26.392Z,26.24
2023-04-11T12:53:26.383Z,26.19
2023-04-11T12:54:26.395Z,26.11